createdAt,value
2022-11-29T00:00:31.298Z,48.1
2022-11-29T00:01:38.490Z,52.1
2022-11-29T00:02:45.784Z,51.3
2022-11-29T00:03:52.870Z,52.4
2022-11-29T00:05:00.026Z,49.7
2022-11-29T00:06:07.410Z,50.2
2022-11-29T00:07:14.613Z,51.1
2022-11-29T00:08:21.798Z,50.1
2022-11-29T00:09:28.991Z,51.2
2022-11-29T00:10:36.090Z,51.8
2022-11-29T00:11:43.181Z,49.3
2022-11-29T00:12:55.554Z,47.3
2022-11-29T00:14:02.586Z,50.9
2022-11-29T00:15:09.943Z,49.9
2022-11-29T00:16:17.383Z,46.4
2022-11-29T00:17:24.614Z,47.4
2022-11-29T00:18:31.546Z,49.8
2022-11-29T00:19:38.842Z,48.9
2022-11-29T00:20:46.038Z,49
2022-11-29T00:21:52.970Z,49.7
2022-11-29T00:23:00.153Z,48.4
2022-11-29T00:24:07.642Z,49.3
2022-11-29T00:25:14.798Z,47.4
2022-11-29T00:26:21.987Z,46.7
2022-11-29T00:27:29.211Z,47.3
2022-11-29T00:28:36.150Z,48.7
2022-11-29T00:29:43.298Z,48.9
2022-11-29T00:30:50.615Z,49.7
2022-11-29T00:31:57.797Z,48.4
2022-11-29T00:33:04.838Z,46.9
2022-11-29T00:34:11.738Z,47.4
2022-11-29T00:35:19.004Z,46.4
2022-11-29T00:36:26.098Z,48
2022-11-29T00:37:33.393Z,47.8
2022-11-29T00:38:40.438Z,48.2
2022-11-29T00:39:47.571Z,48
2022-11-29T00:40:54.686Z,49.1
2022-11-29T00:42:01.837Z,50
2022-11-29T00:43:08.802Z,47.2
2022-11-29T00:44:20.060Z,49.8
2022-11-29T00:45:23.589Z,50.6
2022-11-29T00:46:30.634Z,47.2
2022-11-29T00:47:37.838Z,49.7
2022-11-29T00:48:45.106Z,49.1
2022-11-29T00:49:52.087Z,49.5
2022-11-29T00:50:59.316Z,46.2
2022-11-29T00:52:06.690Z,50.8
2022-11-29T00:53:13.783Z,50.2
2022-11-29T00:54:20.920Z,50.7
2022-11-29T00:55:28.110Z,48.8
2022-11-29T00:56:35.282Z,52
2022-11-29T00:57:42.810Z,48.5
2022-11-29T00:58:53.394Z,48.8
2022-11-29T01:00:00.826Z,49.8
2022-11-29T01:01:08.316Z,50
2022-11-29T01:02:15.402Z,49.3
2022-11-29T01:03:22.466Z,49
2022-11-29T01:04:29.679Z,50.1
2022-11-29T01:05:37.202Z,48.7
2022-11-29T01:06:44.491Z,49.5
2022-11-29T01:07:54.758Z,52
2022-11-29T01:09:01.858Z,49.9
2022-11-29T01:10:08.810Z,48.2
2022-11-29T01:11:15.948Z,50.7
2022-11-29T01:12:25.702Z,49.4
2022-11-29T01:13:32.922Z,49.7
2022-11-29T01:14:40.061Z,50
2022-11-29T01:15:47.163Z,47.7
2022-11-29T01:16:54.342Z,50
2022-11-29T01:18:01.462Z,50
2022-11-29T01:19:08.426Z,47.7
2022-11-29T01:20:15.566Z,50.3
2022-11-29T01:21:22.878Z,49.4
2022-11-29T01:22:29.813Z,48.5
2022-11-29T01:23:40.030Z,46.8
2022-11-29T01:24:47.222Z,48.5
2022-11-29T01:25:54.411Z,49.6
2022-11-29T01:27:06.487Z,48.2
2022-11-29T01:28:13.575Z,50.5
2022-11-29T01:29:20.753Z,48
2022-11-29T01:30:28.082Z,47.6
2022-11-29T01:31:35.143Z,49
2022-11-29T01:32:42.202Z,48.7
2022-11-29T01:33:49.331Z,49.3
2022-11-29T01:34:56.562Z,50.9
2022-11-29T01:36:03.643Z,46.3
2022-11-29T01:37:10.754Z,48.9
2022-11-29T01:38:17.850Z,48.4
2022-11-29T01:39:24.887Z,48.1
2022-11-29T01:40:32.046Z,46
2022-11-29T01:41:39.178Z,49.6
2022-11-29T01:42:46.366Z,46.8
2022-11-29T01:43:53.697Z,47.6
2022-11-29T01:45:05.800Z,45.7
2022-11-29T01:46:17.871Z,47.9
2022-11-29T01:47:25.022Z,45.4
2022-11-29T01:48:32.378Z,46.2
2022-11-29T01:49:39.301Z,47.2
2022-11-29T01:50:46.458Z,47.3
2022-11-29T01:51:53.618Z,46.6
2022-11-29T01:53:08.833Z,46.4
2022-11-29T01:54:15.862Z,47.6
2022-11-29T01:55:22.978Z,46.3
2022-11-29T01:56:30.157Z,48.1
2022-11-29T01:57:37.470Z,48.1
2022-11-29T01:58:44.522Z,46.8
2022-11-29T01:59:51.606Z,48.6
2022-11-29T02:00:58.793Z,45.2
2022-11-29T02:02:06.034Z,46.1
2022-11-29T02:03:15.958Z,47.6
2022-11-29T02:04:23.089Z,46.7
2022-11-29T02:05:31.261Z,45.7
2022-11-29T02:06:38.462Z,46.9
2022-11-29T02:07:45.643Z,48.4
2022-11-29T02:08:52.759Z,48
2022-11-29T02:09:59.830Z,46.1
2022-11-29T02:11:06.809Z,49.5
2022-11-29T02:12:21.579Z,48.8
2022-11-29T02:13:28.852Z,49.8
2022-11-29T02:14:36.005Z,48.6
2022-11-29T02:15:53.409Z,49.4
2022-11-29T02:17:05.702Z,47.1
2022-11-29T02:18:18.115Z,46.1
2022-11-29T02:19:30.418Z,48
2022-11-29T02:20:37.586Z,46.2
2022-11-29T02:21:49.905Z,47.2
2022-11-29T02:23:05.066Z,48.3
2022-11-29T02:24:20.222Z,47.6
2022-11-29T02:25:37.694Z,48.2
2022-11-29T02:26:55.253Z,47.7
2022-11-29T02:28:10.094Z,47.6
2022-11-29T02:29:27.442Z,47.9
2022-11-29T02:30:44.809Z,47.6
2022-11-29T02:32:02.097Z,49
2022-11-29T02:33:19.574Z,45.6
2022-11-29T02:34:31.546Z,45.2
2022-11-29T02:35:43.861Z,44.9
2022-11-29T02:36:59.210Z,48.4
2022-11-29T02:38:14.390Z,46.1
2022-11-29T02:39:31.613Z,45.5
2022-11-29T02:40:46.974Z,47.8
2022-11-29T02:41:59.250Z,45.4
2022-11-29T02:43:13.842Z,45.3
2022-11-29T02:44:26.201Z,46.8
2022-11-29T02:45:43.524Z,45.7
2022-11-29T02:46:55.818Z,43.3
2022-11-29T02:48:05.910Z,44.8
2022-11-29T02:49:21.226Z,45.1
2022-11-29T02:50:28.298Z,46.8
2022-11-29T02:51:35.341Z,45.3
2022-11-29T02:52:52.633Z,45.5
2022-11-29T02:54:07.871Z,45.8
2022-11-29T02:55:20.037Z,45.1
2022-11-29T02:56:37.362Z,42.3
2022-11-29T02:57:44.625Z,46.2
2022-11-29T02:59:01.919Z,44.7
2022-11-29T03:00:08.881Z,45.7
2022-11-29T03:01:21.676Z,45.2
2022-11-29T03:02:34.116Z,45.6
2022-11-29T03:03:46.653Z,44.7
2022-11-29T03:04:58.849Z,44.6
2022-11-29T03:06:13.550Z,45.8
2022-11-29T03:07:29.329Z,44.3
2022-11-29T03:08:46.829Z,45.1
2022-11-29T03:09:59.077Z,46.6
2022-11-29T03:11:12.418Z,46.2
2022-11-29T03:12:24.737Z,47.4
2022-11-29T03:13:34.494Z,45.1
2022-11-29T03:14:46.934Z,46.2
2022-11-29T03:15:53.780Z,46
2022-11-29T03:17:00.963Z,43
2022-11-29T03:18:10.424Z,44.5
2022-11-29T03:19:22.614Z,44.1
2022-11-29T03:20:32.906Z,45.3
2022-11-29T03:21:45.698Z,43.9
2022-11-29T03:23:00.918Z,47.7
2022-11-29T03:24:19.554Z,43.6
2022-11-29T03:25:29.985Z,43.6
2022-11-29T03:26:42.157Z,47.9
2022-11-29T03:27:49.225Z,45.5
2022-11-29T03:28:56.330Z,45.6
2022-11-29T03:30:06.549Z,42.7
2022-11-29T03:31:14.050Z,44.8
2022-11-29T03:32:29.501Z,44.6
2022-11-29T03:33:44.624Z,43.5
2022-11-29T03:34:55.751Z,46.2
2022-11-29T03:36:01.450Z,43.4
2022-11-29T03:37:13.969Z,42.8
2022-11-29T03:38:21.140Z,45.1
2022-11-29T03:39:33.381Z,44.6
2022-11-29T03:40:40.602Z,45.2
2022-11-29T03:41:57.965Z,43.8
2022-11-29T03:43:07.917Z,44.7
2022-11-29T03:44:23.181Z,45.9
2022-11-29T03:45:35.421Z,43.5
2022-11-29T03:46:47.735Z,42.3
2022-11-29T03:47:57.927Z,45.5
2022-11-29T03:49:05.013Z,44.1
2022-11-29T03:50:14.514Z,46.3
2022-11-29T03:51:21.759Z,43.4
2022-11-29T03:52:37.069Z,46.3
2022-11-29T03:53:52.286Z,44.3
2022-11-29T03:54:59.529Z,43.4
2022-11-29T03:56:11.561Z,45.9
2022-11-29T03:57:28.865Z,45.6
2022-11-29T03:58:43.657Z,45.6
2022-11-29T03:59:56.022Z,43.7
2022-11-29T04:01:06.313Z,42.7
2022-11-29T04:02:18.298Z,45.2
2022-11-29T04:03:35.653Z,45.6
2022-11-29T04:04:47.951Z,45
2022-11-29T04:06:05.282Z,42.8
2022-11-29T04:07:22.990Z,44.4
2022-11-29T04:08:37.613Z,43
2022-11-29T04:09:55.030Z,43.2
2022-11-29T04:11:12.710Z,41.8
2022-11-29T04:12:29.969Z,44.8
2022-11-29T04:13:47.342Z,44.4
2022-11-29T04:15:04.667Z,42.7
2022-11-29T04:16:16.705Z,45.8
2022-11-29T04:17:34.044Z,45.6
2022-11-29T04:18:46.228Z,45.5
2022-11-29T04:19:56.413Z,45.6
2022-11-29T04:21:08.465Z,46.4
2022-11-29T04:22:25.785Z,44.4
2022-11-29T04:23:43.148Z,42
2022-11-29T04:24:58.489Z,45.9
2022-11-29T04:26:16.349Z,45.9
2022-11-29T04:27:31.821Z,47.5
2022-11-29T04:28:49.209Z,46.1
2022-11-29T04:29:58.937Z,45.2
2022-11-29T04:31:11.750Z,44.1
2022-11-29T04:32:23.785Z,44.5
2022-11-29T04:33:35.865Z,43.7
2022-11-29T04:34:53.349Z,43.5
2022-11-29T04:36:05.535Z,44.2
2022-11-29T04:37:23.213Z,45.4
2022-11-29T04:38:30.338Z,43.5
2022-11-29T04:39:45.654Z,45.1
2022-11-29T04:41:02.898Z,43.5
2022-11-29T04:42:20.242Z,44.3
2022-11-29T04:43:37.489Z,43.6
2022-11-29T04:44:54.737Z,42.8
2022-11-29T04:46:12.445Z,46
2022-11-29T04:47:27.677Z,43.3
2022-11-29T04:48:37.888Z,44.2
2022-11-29T04:49:55.232Z,45
2022-11-29T04:51:13.245Z,43.3
2022-11-29T04:52:28.225Z,44.8
2022-11-29T04:53:40.587Z,43.7
2022-11-29T04:54:52.733Z,44.7
2022-11-29T04:56:07.752Z,45.6
2022-11-29T04:57:17.553Z,43.8
2022-11-29T04:58:24.581Z,45
2022-11-29T04:59:42.072Z,42.8
2022-11-29T05:00:59.481Z,43.3
2022-11-29T05:02:17.125Z,41.2
2022-11-29T05:03:32.197Z,43.1
2022-11-29T05:04:42.681Z,44.5
2022-11-29T05:05:55.225Z,43.1
2022-11-29T05:07:02.336Z,44.4
2022-11-29T05:08:17.692Z,43
2022-11-29T05:09:32.776Z,42.6
2022-11-29T05:10:45.017Z,44.9
2022-11-29T05:11:54.802Z,43.4
2022-11-29T05:13:09.900Z,42.6
2022-11-29T05:14:22.184Z,43.2
2022-11-29T05:15:36.987Z,43
2022-11-29T05:16:54.304Z,44.3
2022-11-29T05:18:11.456Z,45.4
2022-11-29T05:19:28.925Z,44.4
2022-11-29T05:20:41.064Z,46.3
2022-11-29T05:21:56.389Z,44.8
2022-11-29T05:23:13.654Z,42.6
2022-11-29T05:24:28.420Z,43.7
2022-11-29T05:25:45.812Z,43.2
2022-11-29T05:26:57.989Z,41.6
2022-11-29T05:28:09.777Z,44
2022-11-29T05:29:22.341Z,42.5
2022-11-29T05:30:29.492Z,43
2022-11-29T05:31:41.717Z,42.7
2022-11-29T05:32:51.993Z,42.7
2022-11-29T05:33:59.092Z,44.5
2022-11-29T05:35:14.331Z,46.4
2022-11-29T05:36:32.009Z,45.9
2022-11-29T05:37:39.205Z,45.1
2022-11-29T05:38:54.607Z,43.8
2022-11-29T05:40:07.623Z,45
2022-11-29T05:41:14.978Z,44.7
2022-11-29T05:42:32.556Z,43.7
2022-11-29T05:43:45.818Z,44.1
2022-11-29T05:44:53.101Z,44.3
2022-11-29T05:46:00.280Z,45.6
2022-11-29T05:47:17.784Z,43.6
2022-11-29T05:48:25.023Z,44.6
2022-11-29T05:49:37.585Z,45.8
2022-11-29T05:50:55.080Z,45.1
2022-11-29T05:52:12.852Z,42.7
2022-11-29T05:53:30.104Z,47.2
2022-11-29T05:54:40.302Z,44.2
2022-11-29T05:55:57.664Z,44.7
2022-11-29T05:57:12.852Z,45
2022-11-29T05:58:30.431Z,45.6
2022-11-29T05:59:35.308Z,45.4
2022-11-29T06:00:42.409Z,44.8
2022-11-29T06:01:49.616Z,45.5
2022-11-29T06:03:05.037Z,47
2022-11-29T06:04:17.425Z,45.5
2022-11-29T06:05:33.525Z,45.7
2022-11-29T06:06:40.533Z,45.1
2022-11-29T06:07:52.677Z,43.7
2022-11-29T06:09:04.884Z,43.4
2022-11-29T06:10:17.093Z,44.7
2022-11-29T06:11:24.164Z,45.3
2022-11-29T06:12:32.457Z,42.5
2022-11-29T06:13:39.554Z,43.1
2022-11-29T06:14:51.732Z,43.8
2022-11-29T06:15:59.082Z,41.9
2022-11-29T06:17:14.066Z,41.9
2022-11-29T06:18:29.276Z,44.8
2022-11-29T06:19:46.698Z,42
2022-11-29T06:20:59.166Z,43.5
2022-11-29T06:22:08.848Z,41.6
2022-11-29T06:23:17.064Z,42.7
2022-11-29T06:24:29.241Z,42.2
2022-11-29T06:25:44.564Z,41.3
2022-11-29T06:26:59.872Z,43.1
2022-11-29T06:28:12.481Z,42.9
2022-11-29T06:29:27.228Z,41.7
2022-11-29T06:30:44.603Z,40.8
2022-11-29T06:31:56.955Z,42.3
2022-11-29T06:33:06.485Z,40.1
2022-11-29T06:34:19.404Z,40.4
2022-11-29T06:35:28.836Z,43.9
2022-11-29T06:36:43.632Z,43.3
2022-11-29T06:38:00.990Z,40.6
2022-11-29T06:39:10.998Z,41.7
2022-11-29T06:40:18.100Z,42.3
2022-11-29T06:41:25.276Z,41.1
2022-11-29T06:42:32.496Z,40.5
2022-11-29T06:43:39.575Z,41.3
2022-11-29T06:44:47.049Z,40.9
2022-11-29T06:45:54.004Z,42.6
2022-11-29T06:47:04.181Z,42
2022-11-29T06:48:19.164Z,43
2022-11-29T06:49:29.050Z,42
2022-11-29T06:50:46.681Z,42
2022-11-29T06:51:59.427Z,44.3
2022-11-29T06:53:17.120Z,44
2022-11-29T06:54:29.369Z,45.2
2022-11-29T06:55:41.608Z,45.1
2022-11-29T06:56:48.745Z,44.9
2022-11-29T06:58:00.956Z,46.8
2022-11-29T06:59:13.459Z,44.9
2022-11-29T07:00:20.650Z,46.6
2022-11-29T07:01:30.851Z,46.5
2022-11-29T07:02:45.744Z,46
2022-11-29T07:04:00.992Z,44.8
2022-11-29T07:05:16.176Z,45.5
2022-11-29T07:06:23.221Z,45.6
2022-11-29T07:07:30.476Z,42.4
2022-11-29T07:08:37.703Z,47.5
2022-11-29T07:09:44.776Z,45.3
2022-11-29T07:10:54.944Z,44.6
2022-11-29T07:12:02.236Z,45.8
2022-11-29T07:13:09.703Z,44.7
2022-11-29T07:14:17.167Z,42.9
2022-11-29T07:15:24.344Z,44.3
2022-11-29T07:16:31.528Z,42.5
2022-11-29T07:17:46.353Z,43
2022-11-29T07:19:04.129Z,41.7
2022-11-29T07:20:16.217Z,43.2
2022-11-29T07:21:33.587Z,41.7
2022-11-29T07:22:50.993Z,41.8
2022-11-29T07:24:00.665Z,42.8
2022-11-29T07:25:12.704Z,42.7
2022-11-29T07:26:30.022Z,43
2022-11-29T07:27:42.338Z,40.5
2022-11-29T07:28:57.176Z,43
2022-11-29T07:30:07.463Z,42.3
2022-11-29T07:31:19.986Z,43.8
2022-11-29T07:32:32.144Z,40.8
2022-11-29T07:33:41.839Z,43.3
2022-11-29T07:34:54.569Z,42.4
2022-11-29T07:36:04.266Z,40.9
2022-11-29T07:37:21.910Z,44.5
2022-11-29T07:38:34.137Z,43.9
2022-11-29T07:39:51.589Z,41.7
2022-11-29T07:41:09.493Z,44.9
2022-11-29T07:42:27.067Z,44
2022-11-29T07:43:39.583Z,43.2
2022-11-29T07:44:52.103Z,43.2
2022-11-29T07:46:04.375Z,43.9
2022-11-29T07:47:11.236Z,42.6
2022-11-29T07:48:18.832Z,44.3
2022-11-29T07:49:26.230Z,42.8
2022-11-29T07:50:33.606Z,44.4
2022-11-29T07:51:40.875Z,43.9
2022-11-29T07:52:48.903Z,42
2022-11-29T07:53:55.823Z,46
2022-11-29T07:55:02.976Z,45
2022-11-29T07:56:10.511Z,43.6
2022-11-29T07:57:17.559Z,42.8
2022-11-29T07:58:24.676Z,44.8
2022-11-29T07:59:32.149Z,45.3
2022-11-29T08:00:39.454Z,45
2022-11-29T08:01:46.713Z,44.1
2022-11-29T08:02:54.046Z,46.5
2022-11-29T08:04:01.434Z,46.6
2022-11-29T08:05:08.375Z,45.2
2022-11-29T08:06:15.503Z,44.7
2022-11-29T08:07:27.836Z,45
2022-11-29T08:08:37.813Z,42.8
2022-11-29T08:09:42.304Z,42.5
2022-11-29T08:10:49.243Z,45.9
2022-11-29T08:11:56.441Z,42.8
2022-11-29T08:13:03.493Z,42.6
2022-11-29T08:14:10.476Z,43.8
2022-11-29T08:15:17.640Z,42.7
2022-11-29T08:16:24.816Z,43.7
2022-11-29T08:17:32.300Z,41.8
2022-11-29T08:18:39.630Z,43.6
2022-11-29T08:19:46.709Z,42.8
2022-11-29T08:20:53.940Z,41.9
2022-11-29T08:22:01.040Z,41.6
2022-11-29T08:23:08.406Z,41.9
2022-11-29T08:24:15.621Z,44.2
2022-11-29T08:25:22.753Z,40.2
2022-11-29T08:26:31.743Z,42.6
2022-11-29T08:27:37.079Z,45.1
2022-11-29T08:28:44.271Z,42.4
2022-11-29T08:29:53.934Z,41.9
2022-11-29T08:31:01.166Z,40.4
2022-11-29T08:32:08.240Z,42.4
2022-11-29T08:33:15.222Z,41.2
2022-11-29T08:34:22.316Z,42.3
2022-11-29T08:35:29.425Z,41.3
2022-11-29T08:36:36.791Z,42.9
2022-11-29T08:37:43.792Z,42.2
2022-11-29T08:38:53.883Z,42
2022-11-29T08:39:58.133Z,41.5
2022-11-29T08:41:05.200Z,41.3
2022-11-29T08:42:12.358Z,42.8
2022-11-29T08:43:19.369Z,41
2022-11-29T08:44:26.460Z,42.3
2022-11-29T08:45:33.700Z,42.4
2022-11-29T08:46:40.833Z,43
2022-11-29T08:47:53.176Z,39.2
2022-11-29T08:49:00.209Z,42.5
2022-11-29T08:50:07.381Z,41.6
2022-11-29T08:51:14.381Z,41.9
2022-11-29T08:52:21.524Z,40.3
2022-11-29T08:53:33.860Z,42.5
2022-11-29T08:54:46.103Z,43.7
2022-11-29T08:55:54.097Z,41.5
2022-11-29T08:57:38.360Z,42.7
2022-11-29T08:58:08.591Z,43.5
2022-11-29T08:59:15.471Z,43.1
2022-11-29T09:00:22.643Z,42.4
2022-11-29T09:01:29.802Z,44.7
2022-11-29T09:02:37.064Z,43.2
2022-11-29T09:03:44.155Z,43.7
2022-11-29T09:04:56.579Z,46.8
2022-11-29T09:06:06.392Z,48.1
2022-11-29T09:07:15.375Z,49.8
2022-11-29T09:08:22.131Z,48
2022-11-29T09:09:29.433Z,48.7
2022-11-29T09:10:36.477Z,47.1
2022-11-29T09:11:46.964Z,46.2
2022-11-29T09:12:50.838Z,47.8
2022-11-29T09:13:58.053Z,45.1
2022-11-29T09:15:05.122Z,45.7
2022-11-29T09:16:13.150Z,47.2
2022-11-29T09:17:20.267Z,44.2
2022-11-29T09:18:27.378Z,48.8
2022-11-29T09:19:34.569Z,47.5
2022-11-29T09:20:41.784Z,45.4
2022-11-29T09:21:48.884Z,45.4
2022-11-29T09:22:55.966Z,47
2022-11-29T09:24:03.178Z,47.8
2022-11-29T09:25:10.213Z,45.9
2022-11-29T09:26:17.206Z,48.3
2022-11-29T09:27:24.408Z,45.8
2022-11-29T09:28:31.558Z,47.3
2022-11-29T09:29:38.675Z,48.4
2022-11-29T09:30:45.791Z,48.9
2022-11-29T09:31:53.091Z,48.1
2022-11-29T09:33:00.092Z,45.5
2022-11-29T09:34:07.184Z,46.3
2022-11-29T09:35:17.271Z,45.9
2022-11-29T09:36:28.356Z,46.4
2022-11-29T09:37:31.565Z,46.5
2022-11-29T09:38:38.743Z,45.2
2022-11-29T09:39:45.844Z,44.6
2022-11-29T09:40:52.960Z,44.5
2022-11-29T09:42:00.229Z,44.6
2022-11-29T09:43:13.785Z,47.3
2022-11-29T09:44:25.960Z,42.4
2022-11-29T09:45:40.842Z,43.4
2022-11-29T09:46:48.167Z,45.7
2022-11-29T09:48:05.891Z,44.5
2022-11-29T09:49:18.413Z,42.6
2022-11-29T09:50:33.102Z,44.2
2022-11-29T09:51:44.141Z,42.5
2022-11-29T09:52:52.570Z,42.6
2022-11-29T09:54:10.262Z,43.1
2022-11-29T09:55:25.508Z,43.3
2022-11-29T09:56:42.838Z,44.5
2022-11-29T09:57:50.087Z,41
2022-11-29T09:58:57.177Z,42.8
2022-11-29T10:00:09.736Z,43.4
2022-11-29T10:01:19.994Z,41
2022-11-29T10:02:27.203Z,40.9
2022-11-29T10:03:44.544Z,43.2
2022-11-29T10:04:57.728Z,41.3
2022-11-29T10:06:10.203Z,41
2022-11-29T10:07:22.472Z,39.7
2022-11-29T10:08:37.544Z,40.3
2022-11-29T10:09:47.734Z,39.2
2022-11-29T10:10:59.877Z,40.9
2022-11-29T10:12:12.213Z,40.7
2022-11-29T10:13:22.429Z,38.9
2022-11-29T10:14:29.657Z,41.8
2022-11-29T10:15:41.893Z,41.4
2022-11-29T10:16:49.960Z,43.3
2022-11-29T10:17:57.300Z,42.4
2022-11-29T10:19:12.630Z,42.7
2022-11-29T10:20:28.575Z,43.8
2022-11-29T10:21:36.264Z,44.4
2022-11-29T10:22:43.500Z,45.1
2022-11-29T10:23:58.897Z,44.1
2022-11-29T10:25:05.892Z,42
2022-11-29T10:26:12.880Z,41.7
2022-11-29T10:27:20.066Z,40.7
2022-11-29T10:28:27.348Z,40.8
2022-11-29T10:29:34.420Z,41.2
2022-11-29T10:30:41.616Z,40.3
2022-11-29T10:31:48.762Z,40.7
2022-11-29T10:32:55.903Z,40.2
2022-11-29T10:34:03.038Z,41.3
2022-11-29T10:35:16.011Z,38.6
2022-11-29T10:36:23.218Z,37.8
2022-11-29T10:37:32.979Z,39.8
2022-11-29T10:38:42.268Z,39.8
2022-11-29T10:39:49.938Z,38.4
2022-11-29T10:40:58.847Z,36.9
2022-11-29T10:42:09.238Z,37
2022-11-29T10:43:16.915Z,37.2
2022-11-29T10:44:24.190Z,38.3
2022-11-29T10:45:31.696Z,38
2022-11-29T10:46:44.425Z,38.3
2022-11-29T10:47:52.074Z,36.9
2022-11-29T10:49:02.266Z,34.3
2022-11-29T10:50:09.430Z,37.4
2022-11-29T10:51:16.511Z,36.8
2022-11-29T10:52:23.851Z,36.5
2022-11-29T10:53:30.913Z,33.2
2022-11-29T10:54:43.083Z,36
2022-11-29T10:55:49.862Z,35.3
2022-11-29T10:57:05.269Z,37.2
2022-11-29T10:58:20.956Z,35.4
2022-11-29T10:59:30.027Z,37.1
2022-11-29T11:00:38.140Z,36.8
2022-11-29T11:01:45.791Z,35.4
2022-11-29T11:02:52.903Z,38.4
2022-11-29T11:04:00.182Z,37.8
2022-11-29T11:05:07.455Z,36.7
2022-11-29T11:06:14.714Z,36.8
2022-11-29T11:07:21.781Z,37.1
2022-11-29T11:08:34.099Z,37.2
2022-11-29T11:09:41.220Z,37.7
2022-11-29T11:10:53.742Z,35.7
2022-11-29T11:11:58.074Z,36
2022-11-29T11:13:05.171Z,36.7
2022-11-29T11:14:12.267Z,36.1
2022-11-29T11:15:24.457Z,38.7
2022-11-29T11:16:36.984Z,36.7
2022-11-29T11:17:39.109Z,35.2
2022-11-29T11:18:46.348Z,35.1
2022-11-29T11:19:53.664Z,39.1
2022-11-29T11:21:00.762Z,36.8
2022-11-29T11:22:08.016Z,38.8
2022-11-29T11:23:15.269Z,37.1
2022-11-29T11:24:27.454Z,39.3
2022-11-29T11:25:34.750Z,37.6
2022-11-29T11:26:41.789Z,37.2
2022-11-29T11:27:48.920Z,38
2022-11-29T11:28:56.054Z,37.6
2022-11-29T11:30:03.169Z,37.6
2022-11-29T11:31:15.786Z,36.7
2022-11-29T11:32:33.504Z,38
2022-11-29T11:33:40.907Z,37
2022-11-29T11:34:48.342Z,37.2
2022-11-29T11:35:55.540Z,35.7
2022-11-29T11:37:05.874Z,36
2022-11-29T11:38:18.469Z,35.8
2022-11-29T11:39:25.592Z,35.4
2022-11-29T11:40:32.735Z,37.4
2022-11-29T11:41:39.960Z,36.7
2022-11-29T11:42:52.271Z,37.9
2022-11-29T11:44:07.083Z,36.3
2022-11-29T11:45:09.537Z,38.6
2022-11-29T11:46:18.040Z,38
2022-11-29T11:47:23.905Z,36.5
2022-11-29T11:48:31.385Z,35.8
2022-11-29T11:49:38.488Z,37.9
2022-11-29T11:50:50.742Z,36.5
2022-11-29T11:51:57.768Z,35.1
2022-11-29T11:53:05.008Z,35.4
2022-11-29T11:54:20.025Z,36.1
2022-11-29T11:55:27.376Z,35.1
2022-11-29T11:56:37.377Z,34.4
2022-11-29T11:57:44.904Z,35.1
2022-11-29T11:58:52.945Z,34.1
2022-11-29T12:00:05.180Z,33.7
2022-11-29T12:01:07.591Z,35.2
2022-11-29T12:02:19.984Z,33.8
2022-11-29T12:03:27.322Z,31.1
2022-11-29T12:04:39.501Z,33.5
2022-11-29T12:05:46.679Z,33.1
2022-11-29T12:06:53.813Z,33.3
2022-11-29T12:08:08.053Z,30.1
2022-11-29T12:09:13.604Z,32.5
2022-11-29T12:10:30.796Z,31.9
2022-11-29T12:11:38.108Z,32
2022-11-29T12:12:55.364Z,31.7
2022-11-29T12:14:02.515Z,32.1
2022-11-29T12:15:09.741Z,30.6
2022-11-29T12:16:27.316Z,30.5
2022-11-29T12:17:34.456Z,31
2022-11-29T12:18:42.043Z,31.4
2022-11-29T12:19:51.892Z,30.6
2022-11-29T12:20:58.932Z,29.2
2022-11-29T12:22:14.906Z,29.9
2022-11-29T12:23:22.369Z,30.2
2022-11-29T12:24:31.955Z,29
2022-11-29T12:25:39.159Z,28.3
2022-11-29T12:26:59.279Z,28.9
2022-11-29T12:27:58.498Z,29.6
2022-11-29T12:29:05.692Z,28.3
2022-11-29T12:30:15.806Z,28.6
2022-11-29T12:31:23.113Z,28.7
2022-11-29T12:32:45.825Z,28.6
2022-11-29T12:33:58.408Z,26.6
2022-11-29T12:35:18.724Z,27.6
2022-11-29T12:36:33.634Z,28.3
2022-11-29T12:37:48.804Z,27.3
2022-11-29T12:39:01.117Z,27.2
2022-11-29T12:40:19.115Z,26.4
2022-11-29T12:41:32.977Z,25.9
2022-11-29T12:42:46.781Z,26
2022-11-29T12:43:59.217Z,25
2022-11-29T12:45:16.381Z,25.5
2022-11-29T12:46:24.648Z,24.9
2022-11-29T12:47:35.977Z,25.4
2022-11-29T12:48:41.786Z,24.1
2022-11-29T12:49:59.133Z,25.1
2022-11-29T12:51:11.129Z,24.6
2022-11-29T12:52:28.467Z,27.4
2022-11-29T12:53:40.753Z,25.8
2022-11-29T12:54:48.240Z,26.4
2022-11-29T12:56:03.229Z,26.7
2022-11-29T12:57:15.015Z,25.3
2022-11-29T12:58:22.342Z,23.9
2022-11-29T12:59:34.927Z,23.6
2022-11-29T13:00:52.533Z,24
2022-11-29T13:02:10.228Z,24.2
2022-11-29T13:03:27.501Z,24.6
2022-11-29T13:04:42.897Z,24.4
2022-11-29T13:05:55.116Z,23.1
2022-11-29T13:07:08.699Z,22.8
2022-11-29T13:08:22.581Z,23.8
2022-11-29T13:09:35.646Z,23.1
2022-11-29T13:10:48.202Z,22.7
2022-11-29T13:12:05.850Z,23.7
2022-11-29T13:13:16.245Z,22.9
2022-11-29T13:14:42.421Z,23.2
2022-11-29T13:15:47.453Z,23.5
2022-11-29T13:17:05.080Z,23.3
2022-11-29T13:18:12.345Z,25.1
2022-11-29T13:19:29.639Z,22.8
2022-11-29T13:20:41.973Z,24.4
2022-11-29T13:21:54.303Z,24.2
2022-11-29T13:23:11.853Z,24.4
2022-11-29T13:24:21.662Z,23.6
2022-11-29T13:25:28.717Z,25.5
2022-11-29T13:26:41.526Z,26.1
2022-11-29T13:27:48.679Z,26
2022-11-29T13:29:00.970Z,26.8
2022-11-29T13:30:08.949Z,26.8
2022-11-29T13:31:17.450Z,27.3
2022-11-29T13:32:25.147Z,25.3
2022-11-29T13:33:34.902Z,24.6
2022-11-29T13:34:49.773Z,22.7
2022-11-29T13:35:56.966Z,23
2022-11-29T13:37:09.223Z,23.3
2022-11-29T13:38:21.802Z,22
2022-11-29T13:39:34.053Z,21.4
2022-11-29T13:40:46.287Z,21.1
2022-11-29T13:42:03.566Z,22.1
2022-11-29T13:43:13.710Z,21.4
2022-11-29T13:44:23.334Z,19
2022-11-29T13:45:40.649Z,20.4
2022-11-29T13:46:47.946Z,21.5
2022-11-29T13:48:00.260Z,21.3
2022-11-29T13:49:07.265Z,20.6
2022-11-29T13:50:22.425Z,21.4
2022-11-29T13:51:39.750Z,21.4
2022-11-29T13:52:47.078Z,21.9
2022-11-29T13:53:54.158Z,22.9
2022-11-29T13:55:01.252Z,23.1
2022-11-29T13:56:14.318Z,23.5
2022-11-29T13:57:43.105Z,23
2022-11-29T13:58:47.081Z,23.5
2022-11-29T13:59:57.741Z,25
2022-11-29T14:01:04.981Z,23.3
2022-11-29T14:02:12.361Z,23.7
2022-11-29T14:03:29.664Z,23.4
2022-11-29T14:04:37.050Z,23.9
2022-11-29T14:05:43.979Z,23.8
2022-11-29T14:06:53.704Z,23
2022-11-29T14:08:10.969Z,24.8
2022-11-29T14:09:26.908Z,23.2
2022-11-29T14:10:36.991Z,23
2022-11-29T14:11:44.123Z,22.8
2022-11-29T14:12:51.330Z,21.4
2022-11-29T14:13:58.474Z,21.5
2022-11-29T14:15:13.617Z,21.2
2022-11-29T14:16:25.918Z,21.1
2022-11-29T14:17:38.225Z,22.5
2022-11-29T14:18:55.458Z,21.8
2022-11-29T14:20:07.701Z,22.2
2022-11-29T14:21:25.277Z,21.6
2022-11-29T14:22:42.600Z,23.3
2022-11-29T14:23:54.993Z,22.6
2022-11-29T14:25:05.408Z,22.9
2022-11-29T14:26:09.474Z,21.9
2022-11-29T14:27:22.369Z,21.9
2022-11-29T14:28:29.366Z,20.4
2022-11-29T14:29:39.049Z,20.4
2022-11-29T14:30:51.449Z,21.3
2022-11-29T14:31:58.436Z,19.8
2022-11-29T14:33:05.560Z,19.7
2022-11-29T14:34:20.798Z,20.8
2022-11-29T14:35:27.707Z,19.8
2022-11-29T14:36:42.516Z,20.6
2022-11-29T14:37:49.779Z,20.7
2022-11-29T14:39:07.459Z,20.4
2022-11-29T14:40:22.907Z,19.7
2022-11-29T14:41:35.391Z,20.4
2022-11-29T14:42:52.713Z,20.9
2022-11-29T14:43:59.883Z,19.9
2022-11-29T14:45:09.591Z,20.6
2022-11-29T14:46:29.361Z,20.6
2022-11-29T14:47:34.436Z,20.5
2022-11-29T14:48:41.559Z,20.4
2022-11-29T14:49:48.764Z,20.7
2022-11-29T14:50:55.802Z,21.2
2022-11-29T14:52:13.077Z,20.5
2022-11-29T14:53:25.507Z,22.4
2022-11-29T14:54:32.887Z,21.8
2022-11-29T14:55:40.179Z,21.3
2022-11-29T14:56:47.262Z,21.5
2022-11-29T14:57:54.398Z,22.1
2022-11-29T14:59:04.583Z,22.3
2022-11-29T15:00:22.277Z,20.4
2022-11-29T15:01:39.672Z,22.2
2022-11-29T15:02:47.265Z,23
2022-11-29T15:03:54.424Z,23.7
2022-11-29T15:05:01.694Z,24
2022-11-29T15:06:08.722Z,26.5
2022-11-29T15:07:18.910Z,25.1
2022-11-29T15:08:34.034Z,26.8
2022-11-29T15:09:47.186Z,28.8
2022-11-29T15:10:54.517Z,28.2
2022-11-29T15:12:06.775Z,28
2022-11-29T15:13:13.715Z,27.4
2022-11-29T15:14:20.818Z,28.9
2022-11-29T15:15:38.214Z,28.6
2022-11-29T15:16:50.515Z,28.6
2022-11-29T15:18:07.806Z,29.9
2022-11-29T15:19:23.066Z,29.1
2022-11-29T15:20:35.262Z,29
2022-11-29T15:21:47.786Z,29
2022-11-29T15:23:03.234Z,30.9
2022-11-29T15:24:10.347Z,29.4
2022-11-29T15:25:17.348Z,30.7
2022-11-29T15:26:27.062Z,29.6
2022-11-29T15:27:38.788Z,29.8
2022-11-29T15:28:41.538Z,29.2
2022-11-29T15:29:48.511Z,27.9
2022-11-29T15:30:55.702Z,28.8
2022-11-29T15:32:05.948Z,29.2
2022-11-29T15:33:12.871Z,28
2022-11-29T15:34:20.046Z,29.6
2022-11-29T15:35:32.238Z,30.3
2022-11-29T15:36:39.457Z,29.3
2022-11-29T15:37:46.752Z,28
2022-11-29T15:38:53.827Z,28.4
2022-11-29T15:40:00.996Z,29.1
2022-11-29T15:41:13.654Z,29.3
2022-11-29T15:42:25.240Z,30
2022-11-29T15:43:30.866Z,28.7
2022-11-29T15:44:38.032Z,29.8
2022-11-29T15:45:48.281Z,31.3